Time;durP1;ratioP1;P1;durP2;ratioP2;P2;SDS_P1;SDS_P2;PMS_P1;PMS_P2;Temp;Humidity;BMP_temperature;BMP_pressure;BME280_temperature;BME280_humidity;BME280_pressure;Samples;Min_cycle;Max_cycle;Signal;HPM_P1;HPM_P2
2021/05/26 00:02:04;;;;;;;2.15;0.90;;;;;;;9.58;nan;100609.47;5086394;28;20055;-78
2021/05/26 00:04:30;;;;;;;1.40;0.60;;;;;;;9.64;nan;100610.72;5093342;28;20512;-79
2021/05/26 00:06:55;;;;;;;2.30;0.80;;;;;;;9.62;nan;100607.38;5077856;28;20039;-78
2021/05/26 00:09:20;;;;;;;1.15;0.80;;;;;;;9.60;nan;100598.75;5095188;28;20492;-78
2021/05/26 00:11:45;;;;;;;2.80;0.73;;;;;;;9.60;nan;100601.41;5082930;28;20032;-79
2021/05/26 00:14:11;;;;;;;1.40;0.65;;;;;;;9.56;nan;100598.22;5076588;28;20036;-79
2021/05/26 00:16:37;;;;;;;1.30;0.77;;;;;;;9.50;nan;100604.91;5095417;28;20024;-78
2021/05/26 00:19:05;;;;;;;1.38;0.70;;;;;;;9.51;nan;100595.16;5083411;28;20032;-78
2021/05/26 00:21:31;;;;;;;1.23;0.60;;;;;;;9.53;nan;100595.84;5095477;28;20077;-79
2021/05/26 00:23:56;;;;;;;0.65;0.50;;;;;;;9.57;nan;100590.16;5094888;28;20036;-78
2021/05/26 00:26:21;;;;;;;1.23;0.70;;;;;;;9.60;nan;100591.66;5096081;28;20079;-78
2021/05/26 00:28:47;;;;;;;4.28;0.95;;;;;;;9.54;nan;100589.63;5078009;28;20540;-78
2021/05/26 00:31:12;;;;;;;1.42;0.65;;;;;;;9.55;nan;100591.28;5094174;28;20032;-79
2021/05/26 00:33:38;;;;;;;1.35;0.60;;;;;;;9.57;nan;100590.16;5077838;28;20119;-79
2021/05/26 00:36:04;;;;;;;1.67;0.70;;;;;;;9.63;nan;100578.19;5076367;28;20091;-79
2021/05/26 00:38:29;;;;;;;1.35;0.68;;;;;;;9.68;nan;100575.13;5096298;28;20058;-78
2021/05/26 00:40:54;;;;;;;1.45;0.60;;;;;;;9.71;nan;100575.66;5065260;28;20068;-78
2021/05/26 00:43:20;;;;;;;1.13;0.70;;;;;;;9.72;nan;100573.84;5057578;28;20032;-78
2021/05/26 00:45:46;;;;;;;2.03;0.65;;;;;;;9.72;nan;100581.75;5090762;28;20047;-78
2021/05/26 00:48:12;;;;;;;1.95;0.80;;;;;;;9.68;nan;100564.56;5095196;28;20063;-78
2021/05/26 00:50:39;;;;;;;1.88;0.90;;;;;;;9.63;nan;100567.63;5095305;28;20040;-78
2021/05/26 00:53:07;;;;;;;2.25;0.70;;;;;;;9.63;nan;100567.63;5088662;28;20381;-79
2021/05/26 00:55:35;;;;;;;1.00;0.60;;;;;;;9.68;nan;100567.22;5069978;28;20055;-78
2021/05/26 00:58:01;;;;;;;0.80;0.60;;;;;;;9.72;nan;100553.53;5086750;28;20116;-78
2021/05/26 01:00:28;;;;;;;1.42;0.60;;;;;;;9.80;nan;100558.13;5076777;28;20090;-78
2021/05/26 01:02:54;;;;;;;1.77;0.80;;;;;;;9.84;nan;100553.34;5074983;28;20039;-78
2021/05/26 01:05:24;;;;;;;1.20;0.77;;;;;;;9.88;nan;100544.19;5082733;28;20028;-79
2021/05/26 01:07:51;;;;;;;1.20;0.80;;;;;;;9.95;nan;100542.59;5088137;28;20065;-78
2021/05/26 01:10:19;;;;;;;3.00;1.00;;;;;;;9.95;nan;100545.25;5075757;28;20029;-78
2021/05/26 01:12:44;;;;;;;2.78;1.05;;;;;;;9.92;nan;100548.19;5086183;28;20055;-79
2021/05/26 01:15:12;;;;;;;2.05;0.90;;;;;;;9.88;nan;100546.81;5067967;28;20032;-78
2021/05/26 01:17:37;;;;;;;2.38;0.88;;;;;;;9.87;nan;100543.34;5069582;28;20054;-78
2021/05/26 01:20:05;;;;;;;1.23;0.75;;;;;;;9.88;nan;100544.19;5094239;28;20028;-78
2021/05/26 01:22:30;;;;;;;3.03;1.08;;;;;;;9.77;nan;100537.25;5092950;28;20028;-79
2021/05/26 01:24:56;;;;;;;1.48;0.70;;;;;;;9.76;nan;100530.34;5088393;28;20110;-79
2021/05/26 01:27:22;;;;;;;1.27;0.70;;;;;;;9.83;nan;100526.13;5083051;28;20044;-79
2021/05/26 01:29:48;;;;;;;1.98;0.90;;;;;;;9.90;nan;100529.03;5081882;28;20560;-78
2021/05/26 01:32:14;;;;;;;3.88;1.15;;;;;;;9.81;nan;100524.63;5085877;28;20043;-78
2021/05/26 01:34:39;;;;;;;1.95;0.80;;;;;;;9.74;nan;100521.72;5094771;28;20043;-79
2021/05/26 01:37:04;;;;;;;3.42;1.13;;;;;;;9.74;nan;100519.09;5081421;28;20039;-79
2021/05/26 01:39:30;;;;;;;1.75;0.80;;;;;;;9.66;nan;100497.88;5077399;28;20075;-78
2021/05/26 01:41:55;;;;;;;0.77;0.50;;;;;;;9.66;nan;100503.97;5090138;28;20404;-79
2021/05/26 01:44:24;;;;;;;2.00;0.95;;;;;;;9.56;nan;100503.19;5057188;28;20436;-79
2021/05/26 01:46:49;;;;;;;1.58;0.70;;;;;;;9.53;nan;100509.59;5056467;28;20039;-78
2021/05/26 01:49:15;;;;;;;2.25;0.90;;;;;;;9.53;nan;100504.31;5074371;28;20037;-78
2021/05/26 01:51:40;;;;;;;1.70;0.70;;;;;;;9.50;nan;100507.22;5080661;28;20115;-79
2021/05/26 01:54:06;;;;;;;1.25;0.77;;;;;;;9.48;nan;100501.25;5075885;28;20032;-79
2021/05/26 01:56:31;;;;;;;3.53;0.82;;;;;;;9.49;nan;100497.66;5075350;28;20029;-78
2021/05/26 01:58:58;;;;;;;3.47;0.90;;;;;;;9.51;nan;100494.84;5074468;28;20408;-79
2021/05/26 02:01:25;;;;;;;3.03;0.93;;;;;;;9.52;nan;100496.53;5074763;28;20025;-79
2021/05/26 02:03:51;;;;;;;2.45;0.90;;;;;;;9.51;nan;100487.78;5075548;28;20059;-79
2021/05/26 02:06:18;;;;;;;2.15;0.80;;;;;;;9.47;nan;100486.41;5074589;28;20038;-77
2021/05/26 02:08:46;;;;;;;1.90;0.82;;;;;;;9.45;nan;100496.28;5057254;28;20102;-77
2021/05/26 02:14:04;;;;;;;2.03;0.88;;;;;;;9.45;nan;100487.53;5057641;28;20035;-77
2021/05/26 02:16:29;;;;;;;3.55;0.90;;;;;;;9.43;nan;100490.31;5068748;28;20090;-77
2021/05/26 02:18:54;;;;;;;3.10;0.90;;;;;;;9.41;nan;100499.34;5072106;28;20044;-77
2021/05/26 02:21:20;;;;;;;2.95;1.00;;;;;;;9.41;nan;100508.09;5070655;28;20447;-77
2021/05/26 02:23:46;;;;;;;3.60;1.10;;;;;;;9.42;nan;100495.75;5071509;28;20036;-77
2021/05/26 02:26:11;;;;;;;2.15;1.05;;;;;;;9.35;nan;100484.94;5053200;28;20551;-77
2021/05/26 02:28:37;;;;;;;3.05;1.30;;;;;;;9.37;nan;100480.34;5071727;28;20524;-77
2021/05/26 02:31:02;;;;;;;2.78;1.30;;;;;;;9.39;nan;100475.78;5071248;28;20071;-80
2021/05/26 02:33:28;;;;;;;2.00;1.00;;;;;;;9.35;nan;100471.75;5051937;28;20130;-77
2021/05/26 02:35:53;;;;;;;2.33;1.15;;;;;;;9.38;nan;100460.91;5068546;28;20039;-77
2021/05/26 02:38:18;;;;;;;2.70;1.10;;;;;;;9.35;nan;100459.38;5067627;28;20040;-77
2021/05/26 02:40:44;;;;;;;5.00;1.33;;;;;;;9.29;nan;100462.59;5074255;28;20290;-77
2021/05/26 02:43:10;;;;;;;2.92;1.10;;;;;;;9.27;nan;100459.28;5074569;28;20193;-77
2021/05/26 02:45:35;;;;;;;2.22;0.90;;;;;;;9.23;nan;100460.53;5080029;28;20028;-77
2021/05/26 02:48:01;;;;;;;1.52;0.85;;;;;;;9.23;nan;100452.63;5080517;28;20032;-80
2021/05/26 02:50:26;;;;;;;1.65;0.93;;;;;;;9.32;nan;100448.31;5071232;28;20125;-77
2021/05/26 02:52:52;;;;;;;1.55;0.90;;;;;;;9.40;nan;100443.09;5069851;28;20124;-78
2021/05/26 02:55:19;;;;;;;2.42;1.10;;;;;;;9.35;nan;100445.34;5077280;28;20129;-77
2021/05/26 02:57:44;;;;;;;2.92;1.00;;;;;;;9.32;nan;100438.56;5068260;28;20041;-77
2021/05/26 03:00:12;;;;;;;2.40;1.10;;;;;;;9.34;nan;100441.03;5086113;28;20123;-77
2021/05/26 03:02:37;;;;;;;5.18;1.30;;;;;;;9.33;nan;100440.22;5070990;28;20037;-77
2021/05/26 03:05:05;;;;;;;4.30;0.98;;;;;;;9.32;nan;100437.75;5072257;28;20098;-77
2021/05/26 03:07:30;;;;;;;2.05;0.90;;;;;;;9.31;nan;100430.78;5071095;28;20039;-77
2021/05/26 03:09:55;;;;;;;3.15;1.10;;;;;;;9.31;nan;100421.06;5086518;28;20115;-77
2021/05/26 03:12:21;;;;;;;3.05;1.23;;;;;;;9.32;nan;100412.19;5072269;28;20386;-77
2021/05/26 03:14:46;;;;;;;2.33;1.08;;;;;;;9.34;nan;100414.66;5073493;28;20075;-77
2021/05/26 03:17:11;;;;;;;2.35;1.00;;;;;;;9.36;nan;100416.16;5072305;28;20081;-77
2021/05/26 03:19:37;;;;;;;3.10;1.10;;;;;;;9.35;nan;100414.50;5088851;28;20028;-77
2021/05/26 03:22:02;;;;;;;2.95;1.13;;;;;;;9.31;nan;100399.94;5087346;28;20040;-77
2021/05/26 03:24:28;;;;;;;4.00;1.10;;;;;;;9.32;nan;100406.06;5090395;28;20103;-77
2021/05/26 03:26:53;;;;;;;1.35;0.85;;;;;;;9.35;nan;100411.06;5090685;28;20033;-77
2021/05/26 03:29:19;;;;;;;1.20;0.80;;;;;;;9.41;nan;100401.72;5090889;28;20485;-77
2021/05/26 03:31:45;;;;;;;3.58;1.20;;;;;;;9.38;nan;100405.47;5071786;28;20036;-77
2021/05/26 03:34:10;;;;;;;3.33;1.20;;;;;;;9.34;nan;100402.31;5091498;28;20038;-77
2021/05/26 03:36:40;;;;;;;2.72;1.00;;;;;;;9.36;nan;100407.41;5075195;28;20497;-77
2021/05/26 03:39:08;;;;;;;1.58;0.80;;;;;;;9.37;nan;100409.09;5076266;28;20036;-77
2021/05/26 03:41:33;;;;;;;1.80;0.85;;;;;;;9.43;nan;100407.66;5066947;28;20109;-77
2021/05/26 03:43:59;;;;;;;2.97;0.90;;;;;;;9.46;nan;100400.31;5072954;28;20090;-76
2021/05/26 03:46:24;;;;;;;2.10;0.82;;;;;;;9.50;nan;100393.72;5081867;28;20110;-77
2021/05/26 03:48:50;;;;;;;1.45;0.80;;;;;;;9.51;nan;100386.63;5093230;28;20190;-77
2021/05/26 03:51:16;;;;;;;2.55;0.80;;;;;;;9.54;nan;100389.00;5083085;28;20114;-77
2021/05/26 03:53:41;;;;;;;2.72;0.90;;;;;;;9.53;nan;100388.19;5087465;28;20115;-77
2021/05/26 03:56:06;;;;;;;2.10;0.90;;;;;;;9.54;nan;100391.66;5092264;28;20031;-76
2021/05/26 03:58:32;;;;;;;2.63;1.00;;;;;;;9.55;nan;100391.47;5075259;28;20032;-77
2021/05/26 04:00:57;;;;;;;3.50;1.33;;;;;;;9.62;nan;100391.72;5092565;28;20039;-77
2021/05/26 04:03:24;;;;;;;3.03;1.10;;;;;;;9.60;nan;100385.75;5090885;28;20028;-77
2021/05/26 04:05:49;;;;;;;4.15;1.40;;;;;;;9.62;nan;100388.25;5073113;28;20413;-79
2021/05/26 04:08:14;;;;;;;4.07;1.42;;;;;;;9.64;nan;100394.22;5072817;28;20037;-77
2021/05/26 04:10:40;;;;;;;3.03;1.10;;;;;;;9.59;nan;100392.03;5069437;28;20036;-79
2021/05/26 04:13:05;;;;;;;1.95;1.17;;;;;;;9.57;nan;100396.63;5096973;28;20504;-79
2021/05/26 04:15:30;;;;;;;3.45;1.25;;;;;;;9.58;nan;100395.63;5071621;28;20039;-77
2021/05/26 04:18:05;;;;;;;5.25;1.70;;;;;;;9.62;nan;100401.44;5080787;28;20040;-78
2021/05/26 04:20:30;;;;;;;2.83;1.40;;;;;;;9.56;nan;100402.88;5089707;28;20040;-79
2021/05/26 04:22:57;;;;;;;4.25;1.48;;;;;;;9.51;nan;100397.19;5094691;28;20039;-79
2021/05/26 04:25:22;;;;;;;4.78;1.23;;;;;;;9.46;nan;100400.31;5091904;28;20051;-79
2021/05/26 04:27:47;;;;;;;5.10;1.45;;;;;;;9.39;nan;100395.75;5098195;28;20590;-79
2021/05/26 04:30:13;;;;;;;3.30;1.40;;;;;;;9.40;nan;100392.97;5080432;28;20033;-79
2021/05/26 04:32:39;;;;;;;4.15;1.40;;;;;;;9.41;nan;100391.16;5074050;28;20041;-79
2021/05/26 04:35:04;;;;;;;3.72;1.40;;;;;;;9.44;nan;100389.06;5073677;28;20389;-79
2021/05/26 04:37:30;;;;;;;3.92;1.60;;;;;;;9.42;nan;100398.94;5077401;28;20090;-79
2021/05/26 04:39:55;;;;;;;3.25;1.20;;;;;;;9.39;nan;100385.19;5080710;28;20085;-79
2021/05/26 04:42:20;;;;;;;4.57;1.27;;;;;;;9.38;nan;100384.38;5078221;28;20123;-79
2021/05/26 04:44:46;;;;;;;5.07;1.63;;;;;;;9.40;nan;100376.31;5078262;28;20031;-79
2021/05/26 04:47:11;;;;;;;3.20;1.48;;;;;;;9.38;nan;100365.88;5079098;28;20524;-79
2021/05/26 04:49:36;;;;;;;3.45;1.33;;;;;;;9.40;nan;100363.94;5083665;28;20090;-79
2021/05/26 04:52:02;;;;;;;4.25;1.52;;;;;;;9.42;nan;100363.81;5094876;28;20080;-79
2021/05/26 04:54:27;;;;;;;4.03;1.30;;;;;;;9.40;nan;100353.38;5085239;28;20061;-79
2021/05/26 04:56:52;;;;;;;5.07;1.25;;;;;;;9.38;nan;100357.16;5074420;28;20094;-79
2021/05/26 04:59:18;;;;;;;2.70;1.35;;;;;;;9.46;nan;100357.22;5090427;28;20033;-78
2021/05/26 05:01:43;;;;;;;2.63;1.30;;;;;;;9.46;nan;100355.44;5056815;28;20041;-79
2021/05/26 05:04:08;;;;;;;4.22;1.40;;;;;;;9.52;nan;100357.47;5075378;28;20055;-79
2021/05/26 05:06:33;;;;;;;4.20;1.42;;;;;;;9.60;nan;100354.06;5074784;28;20021;-78
2021/05/26 05:08:59;;;;;;;4.57;1.40;;;;;;;9.66;nan;100355.31;5057112;28;20037;-78
2021/05/26 05:11:24;;;;;;;3.10;1.48;;;;;;;9.67;nan;100357.78;5076181;28;20102;-78
2021/05/26 05:13:51;;;;;;;5.85;1.50;;;;;;;9.75;nan;100354.41;5088620;28;20119;-78
2021/05/26 05:16:16;;;;;;;4.32;1.45;;;;;;;9.81;nan;100355.59;5078299;28;20037;-79
2021/05/26 05:18:42;;;;;;;3.03;1.30;;;;;;;9.89;nan;100355.66;5091285;28;20047;-77
2021/05/26 05:21:07;;;;;;;4.60;1.42;;;;;;;9.88;nan;100359.31;5077082;28;20037;-78
2021/05/26 05:23:34;;;;;;;2.92;1.40;;;;;;;9.89;nan;100350.38;5075534;28;20036;-77
2021/05/26 05:26:00;;;;;;;4.93;1.50;;;;;;;9.95;nan;100347.97;5076696;28;20501;-78
2021/05/26 05:28:25;;;;;;;5.30;1.55;;;;;;;9.95;nan;100341.88;5070452;28;20043;-77
2021/05/26 05:30:50;;;;;;;4.05;1.63;;;;;;;10.07;nan;100348.56;5084740;28;20060;-78
2021/05/26 05:33:16;;;;;;;5.22;1.60;;;;;;;10.09;nan;100346.59;5066933;28;20067;-79
2021/05/26 05:35:41;;;;;;;4.90;1.45;;;;;;;10.10;nan;100352.72;5080917;28;20048;-77
2021/05/26 05:38:06;;;;;;;3.95;1.75;;;;;;;10.04;nan;100350.69;5084881;28;20330;-78
2021/05/26 05:40:32;;;;;;;4.35;1.52;;;;;;;10.04;nan;100346.25;5076103;28;20112;-79
2021/05/26 05:42:57;;;;;;;4.32;1.20;;;;;;;10.01;nan;100343.91;5075003;28;20024;-79
2021/05/26 05:45:22;;;;;;;4.03;1.33;;;;;;;10.13;nan;100347.97;5088791;28;20032;-80
2021/05/26 05:47:48;;;;;;;4.28;1.30;;;;;;;10.09;nan;100343.13;5091755;28;20489;-78
2021/05/26 05:50:16;;;;;;;3.67;1.33;;;;;;;10.09;nan;100343.13;5091494;28;20032;-78
2021/05/26 05:52:43;;;;;;;3.97;1.30;;;;;;;10.08;nan;100344.09;5053792;28;20043;-77
2021/05/26 05:55:10;;;;;;;2.75;1.30;;;;;;;10.14;nan;100341.69;5072626;28;20028;-78
2021/05/26 05:57:37;;;;;;;5.35;1.60;;;;;;;10.20;nan;100338.44;5074763;28;20051;-78
2021/05/26 06:00:04;;;;;;;3.97;1.40;;;;;;;10.23;nan;100342.59;5087718;28;20050;-78
2021/05/26 06:02:29;;;;;;;3.67;1.60;;;;;;;10.24;nan;100335.47;5082842;28;20055;-78
2021/05/26 06:04:55;;;;;;;4.25;1.60;;;;;;;10.23;nan;100342.59;5085559;28;20032;-78
2021/05/26 06:07:20;;;;;;;5.32;1.67;;;;;;;10.31;nan;100340.03;5093532;28;20512;-78
2021/05/26 06:09:45;;;;;;;4.13;1.60;;;;;;;10.37;nan;100343.88;5069809;28;20040;-78
2021/05/26 06:12:10;;;;;;;3.42;1.50;;;;;;;10.43;nan;100348.53;5097503;28;20032;-78
2021/05/26 06:14:36;;;;;;;3.63;1.52;;;;;;;10.41;nan;100339.91;5092642;28;20043;-78
2021/05/26 06:17:01;;;;;;;4.18;1.70;;;;;;;10.41;nan;100340.75;5093284;28;20036;-78
2021/05/26 06:19:26;;;;;;;4.28;1.70;;;;;;;10.52;nan;100334.38;5091835;28;20027;-78
2021/05/26 06:21:52;;;;;;;6.15;1.80;;;;;;;10.62;nan;100339.56;5086392;28;20063;-78
2021/05/26 06:24:17;;;;;;;4.57;2.13;;;;;;;10.62;nan;100342.19;5092636;28;20731;-77
2021/05/26 06:26:42;;;;;;;4.88;1.50;;;;;;;10.59;nan;100337.22;5087454;28;20093;-77
2021/05/26 06:29:08;;;;;;;5.72;2.17;;;;;;;10.65;nan;100339.22;5068916;28;20119;-77
2021/05/26 06:31:33;;;;;;;4.93;1.88;;;;;;;10.59;nan;100343.34;5091850;28;20540;-77
2021/05/26 06:33:59;;;;;;;4.28;1.85;;;;;;;10.66;nan;100342.72;5092052;28;20374;-77
2021/05/26 06:36:24;;;;;;;2.88;1.60;;;;;;;10.60;nan;100344.16;5083721;28;20123;-77
2021/05/26 06:38:51;;;;;;;4.20;1.80;;;;;;;10.59;nan;100339.88;5071425;28;20039;-77
2021/05/26 06:41:16;;;;;;;5.85;1.88;;;;;;;10.53;nan;100333.38;5071274;28;20029;-77
2021/05/26 06:43:41;;;;;;;4.80;1.85;;;;;;;10.51;nan;100334.53;5071313;28;20039;-78
2021/05/26 06:46:07;;;;;;;3.90;1.60;;;;;;;10.53;nan;100336.03;5070875;28;20434;-77
2021/05/26 06:48:32;;;;;;;4.10;1.60;;;;;;;10.57;nan;100334.72;5071132;28;20078;-77
2021/05/26 06:50:58;;;;;;;5.13;1.58;;;;;;;10.54;nan;100332.41;5080148;28;20036;-77
2021/05/26 06:53:25;;;;;;;5.10;1.40;;;;;;;10.51;nan;100338.03;5082294;28;20433;-77
2021/05/26 06:55:51;;;;;;;6.93;1.80;;;;;;;10.47;nan;100341.13;5080766;28;20045;-77
2021/05/26 06:58:17;;;;;;;3.72;1.33;;;;;;;10.45;nan;100337.81;5070609;28;20068;-77
2021/05/26 07:00:42;;;;;;;4.72;1.90;;;;;;;10.39;nan;100337.44;5068337;28;20133;-77
2021/05/26 07:03:09;;;;;;;8.65;1.50;;;;;;;10.41;nan;100337.28;5086237;28;20238;-77
2021/05/26 07:05:34;;;;;;;4.57;1.90;;;;;;;10.38;nan;100322.56;5080757;28;20139;-77
2021/05/26 07:08:00;;;;;;;4.32;1.52;;;;;;;10.40;nan;100325.06;5072485;28;20398;-77
2021/05/26 07:10:25;;;;;;;4.93;1.52;;;;;;;10.36;nan;100321.06;5079062;28;20509;-77
2021/05/26 07:12:50;;;;;;;3.03;1.50;;;;;;;10.36;nan;100315.78;5086958;28;20060;-77
2021/05/26 07:15:17;;;;;;;4.32;1.50;;;;;;;10.38;nan;100317.28;5078216;28;20037;-77
2021/05/26 07:17:43;;;;;;;4.18;1.55;;;;;;;10.40;nan;100323.22;5086128;28;20037;-77
2021/05/26 07:20:09;;;;;;;6.53;1.75;;;;;;;10.39;nan;100321.59;5089301;28;20105;-77
2021/05/26 07:22:34;;;;;;;3.25;1.20;;;;;;;10.43;nan;100311.50;5077620;28;20036;-77
2021/05/26 07:24:59;;;;;;;4.43;1.27;;;;;;;10.45;nan;100319.31;5085895;28;20039;-77
2021/05/26 07:27:25;;;;;;;5.50;1.92;;;;;;;10.46;nan;100316.47;5082590;28;20037;-77
2021/05/26 07:29:50;;;;;;;4.63;1.50;;;;;;;10.46;nan;100321.78;5084245;28;20032;-77
2021/05/26 07:32:16;;;;;;;5.20;1.40;;;;;;;10.53;nan;100321.97;5088688;28;20032;-76
2021/05/26 07:34:41;;;;;;;4.60;1.70;;;;;;;10.55;nan;100315.53;5090486;28;20073;-77
2021/05/26 07:37:06;;;;;;;3.35;1.35;;;;;;;10.55;nan;100318.19;5083709;28;20028;-76
2021/05/26 07:39:36;;;;;;;3.60;1.35;;;;;;;10.54;nan;100316.53;5093749;28;20033;-77
2021/05/26 07:42:04;;;;;;;6.50;1.88;;;;;;;10.52;nan;100309.75;5093073;28;20028;-76
2021/05/26 07:44:29;;;;;;;4.03;1.70;;;;;;;10.53;nan;100311.41;5084328;28;20032;-77
2021/05/26 07:46:54;;;;;;;4.28;1.35;;;;;;;10.53;nan;100309.59;5085628;28;20492;-78
2021/05/26 07:49:21;;;;;;;4.93;1.33;;;;;;;10.52;nan;100307.13;5085139;28;20047;-77
2021/05/26 07:51:50;;;;;;;4.47;1.60;;;;;;;10.43;nan;100310.69;5094359;28;20028;-77
2021/05/26 07:54:16;;;;;;;5.68;1.50;;;;;;;10.43;nan;100314.16;5075057;28;20171;-78
2021/05/26 07:56:41;;;;;;;2.80;1.35;;;;;;;10.46;nan;100308.56;5093461;28;20179;-79
2021/05/26 07:59:07;;;;;;;6.45;1.42;;;;;;;10.51;nan;100313.38;5095224;28;20124;-79
2021/05/26 08:01:32;;;;;;;3.00;1.30;;;;;;;10.50;nan;100314.38;5093570;28;20032;-77
2021/05/26 08:03:57;;;;;;;4.43;1.77;;;;;;;10.53;nan;100314.88;5075060;28;20176;-77
2021/05/26 08:06:22;;;;;;;4.32;1.40;;;;;;;10.44;nan;100309.69;5074954;28;20032;-77
2021/05/26 08:08:48;;;;;;;6.25;1.83;;;;;;;10.39;nan;100318.09;5075204;28;20409;-78
2021/05/26 08:11:13;;;;;;;5.93;1.52;;;;;;;10.31;nan;100310.13;5073187;28;20032;-78
2021/05/26 08:13:38;;;;;;;3.90;1.40;;;;;;;10.30;nan;100309.31;5054874;28;20048;-77
2021/05/26 08:16:04;;;;;;;4.20;1.27;;;;;;;10.29;nan;100302.34;5049832;28;20409;-77
2021/05/26 08:18:29;;;;;;;5.28;1.83;;;;;;;10.31;nan;100300.38;5074052;28;20029;-76
2021/05/26 08:20:55;;;;;;;3.55;1.63;;;;;;;10.39;nan;100299.59;5073694;28;20033;-78
2021/05/26 08:23:22;;;;;;;4.13;1.45;;;;;;;10.41;nan;100297.63;5082185;28;20028;-79
2021/05/26 08:25:48;;;;;;;7.72;2.00;;;;;;;10.51;nan;100300.16;5090410;28;20029;-79
2021/05/26 08:28:13;;;;;;;3.58;1.52;;;;;;;10.56;nan;100285.50;5074538;28;20032;-77
2021/05/26 08:30:40;;;;;;;4.25;1.63;;;;;;;10.67;nan;100289.66;5092403;28;20055;-77
2021/05/26 08:33:05;;;;;;;4.72;1.77;;;;;;;10.67;nan;100292.31;5094233;28;20540;-79
2021/05/26 08:35:31;;;;;;;5.53;1.50;;;;;;;10.69;nan;100287.69;5095297;28;20127;-79
2021/05/26 08:37:56;;;;;;;4.40;1.55;;;;;;;10.74;nan;100293.34;5079212;28;20029;-78
2021/05/26 08:40:21;;;;;;;4.25;1.60;;;;;;;10.69;nan;100279.75;5074282;28;20497;-79
2021/05/26 08:42:47;;;;;;;3.08;1.33;;;;;;;10.71;nan;100290.19;5075453;28;20203;-78
2021/05/26 08:45:14;;;;;;;3.97;1.63;;;;;;;10.74;nan;100289.88;5077696;28;20032;-78
2021/05/26 08:47:45;;;;;;;3.25;1.40;;;;;;;10.81;nan;100293.53;5085704;28;20092;-78
2021/05/26 08:50:13;;;;;;;3.42;1.60;;;;;;;10.83;nan;100288.91;5078863;28;20032;-78
2021/05/26 08:52:39;;;;;;;3.75;1.35;;;;;;;10.86;nan;100285.13;5094526;28;20119;-79
2021/05/26 08:55:05;;;;;;;3.83;1.40;;;;;;;10.84;nan;100287.91;5091039;28;20056;-77
2021/05/26 08:57:30;;;;;;;3.30;1.30;;;;;;;10.88;nan;100280.50;5088111;28;20115;-78
2021/05/26 08:59:56;;;;;;;3.65;1.30;;;;;;;10.95;nan;100277.06;5095321;28;20066;-79
2021/05/26 09:02:21;;;;;;;5.82;1.73;;;;;;;11.01;nan;100281.72;5088369;28;20383;-78
2021/05/26 09:04:47;;;;;;;5.80;1.60;;;;;;;10.94;nan;100278.06;5074227;28;20098;-78
2021/05/26 09:07:19;;;;;;;2.78;1.30;;;;;;;10.90;nan;100276.72;5077011;28;20063;-78
2021/05/26 09:09:52;;;;;;;4.50;1.50;;;;;;;10.94;nan;100271.91;5092027;28;20040;-78
2021/05/26 09:12:26;;;;;;;3.70;1.33;;;;;;;10.93;nan;100279.03;5093108;28;20036;-79
2021/05/26 09:14:52;;;;;;;4.72;1.40;;;;;;;10.90;nan;100275.88;5074877;28;20032;-78
2021/05/26 09:17:17;;;;;;;2.65;1.30;;;;;;;10.90;nan;100273.25;5073248;28;20548;-78
2021/05/26 09:19:43;;;;;;;3.22;1.40;;;;;;;10.88;nan;100276.03;5067252;28;20376;-78
2021/05/26 09:22:13;;;;;;;3.17;1.42;;;;;;;10.92;nan;100268.63;5092043;28;20028;-78
2021/05/26 09:24:39;;;;;;;4.53;1.50;;;;;;;10.91;nan;100266.94;5094625;28;20032;-78
2021/05/26 09:27:07;;;;;;;6.97;1.50;;;;;;;11.01;nan;100265.84;5073990;28;20375;-78
2021/05/26 09:29:43;;;;;;;4.45;1.30;;;;;;;11.00;nan;100258.06;5075866;28;20263;-78
2021/05/26 09:32:19;;;;;;;3.33;1.40;;;;;;;11.01;nan;100265.00;5055393;28;20036;-78
2021/05/26 09:34:50;;;;;;;2.58;1.00;;;;;;;11.03;nan;100263.03;5065780;28;20041;-78
2021/05/26 09:37:23;;;;;;;3.88;1.48;;;;;;;11.08;nan;100266.00;5067673;28;20512;-78
2021/05/26 09:39:53;;;;;;;2.88;1.20;;;;;;;11.04;nan;100262.88;5072439;28;20056;-79
2021/05/26 09:42:24;;;;;;;4.25;1.55;;;;;;;11.07;nan;100268.84;5066362;28;20041;-79
2021/05/26 09:45:12;;;;;;;3.92;1.17;;;;;;;11.14;nan;100256.63;5066819;28;20048;-78
2021/05/26 09:47:51;;;;;;;4.25;1.50;;;;;;;11.16;nan;100252.81;5072945;28;20037;-77
2021/05/26 09:50:34;;;;;;;2.92;1.23;;;;;;;11.19;nan;100251.66;5059808;28;20043;-78
2021/05/26 09:53:05;;;;;;;4.82;1.50;;;;;;;11.30;nan;100247.84;5053637;28;20093;-77
2021/05/26 09:55:30;;;;;;;;;;;;;;;11.34;nan;100257.94;5075146;28;20032;-79
2021/05/26 09:57:57;;;;;;;2.40;1.20;;;;;;;11.47;nan;100255.66;5056440;28;20468;-78
2021/05/26 10:00:23;;;;;;;2.55;1.00;;;;;;;11.49;nan;100252.88;5074175;28;20580;-79
2021/05/26 10:02:52;;;;;;;3.47;1.40;;;;;;;11.55;nan;100246.06;5079729;28;20033;-78
2021/05/26 10:05:19;;;;;;;3.25;1.27;;;;;;;11.54;nan;100244.44;5080722;28;20435;-78
2021/05/26 10:07:53;;;;;;;2.33;1.27;;;;;;;11.53;nan;100248.06;5072591;28;20040;-77
2021/05/26 10:10:20;;;;;;;2.78;1.10;;;;;;;11.45;nan;100246.22;5074333;28;20110;-78
2021/05/26 10:12:52;;;;;;;3.28;1.30;;;;;;;11.43;nan;100249.03;5069713;28;20029;-78
2021/05/26 10:15:19;;;;;;;2.47;1.30;;;;;;;11.39;nan;100238.94;5086410;28;20084;-78
2021/05/26 10:17:51;;;;;;;3.47;1.23;;;;;;;11.30;nan;100247.84;5072785;28;20059;-78
2021/05/26 10:20:18;;;;;;;3.10;1.05;;;;;;;11.27;nan;100243.72;5090361;28;20496;-77
2021/05/26 10:22:45;;;;;;;5.35;1.40;;;;;;;11.32;nan;100235.28;5089301;28;20067;-77
2021/05/26 10:25:12;;;;;;;3.28;1.30;;;;;;;11.39;nan;100239.78;5085252;28;20459;-77
2021/05/26 10:27:43;;;;;;;2.90;1.17;;;;;;;11.29;nan;100230.31;5073230;28;20032;-77
2021/05/26 10:30:10;;;;;;;1.90;0.88;;;;;;;11.17;nan;100235.94;5068627;28;20032;-77
2021/05/26 10:32:54;;;;;;;2.55;1.10;;;;;;;11.24;nan;100242.22;5085063;28;20044;-77
2021/05/26 10:35:24;;;;;;;2.38;1.00;;;;;;;11.16;nan;100246.69;5078767;28;20040;-77
2021/05/26 10:38:00;;;;;;;4.30;1.38;;;;;;;11.16;nan;100239.56;5076622;28;20037;-76
2021/05/26 10:40:33;;;;;;;3.03;1.15;;;;;;;11.17;nan;100241.22;5086391;28;20587;-77
2021/05/26 10:43:17;;;;;;;3.42;1.25;;;;;;;11.17;nan;100240.41;5057784;28;20131;-77
2021/05/26 10:45:44;;;;;;;2.25;1.00;;;;;;;11.11;nan;100239.25;5065386;28;20032;-78
2021/05/26 10:48:10;;;;;;;3.15;1.13;;;;;;;11.03;nan;100234.72;5052099;28;20113;-77
2021/05/26 10:50:45;;;;;;;3.55;1.10;;;;;;;11.04;nan;100246.16;5069979;28;20040;-77
2021/05/26 10:53:11;;;;;;;4.50;1.10;;;;;;;11.09;nan;100235.94;5067437;28;20055;-78
2021/05/26 10:55:48;;;;;;;2.30;1.15;;;;;;;11.18;nan;100231.50;5071601;28;20440;-77
2021/05/26 10:58:25;;;;;;;2.65;1.05;;;;;;;11.27;nan;100230.47;5066622;28;20077;-77
2021/05/26 11:00:56;;;;;;;3.33;0.95;;;;;;;11.22;nan;100230.97;5065422;28;20037;-78
2021/05/26 11:03:24;;;;;;;;;;;;;;;11.25;nan;100233.31;5072411;28;20043;-77
2021/05/26 11:06:05;;;;;;;3.45;1.05;;;;;;;11.22;nan;100230.16;5085278;28;20395;-78
2021/05/26 11:08:35;;;;;;;1.85;0.85;;;;;;;11.12;nan;100221.53;5082225;28;20048;-79
2021/05/26 11:11:39;;;;;;;2.47;0.93;;;;;;;11.18;nan;100226.19;5088533;28;20044;-79
2021/05/26 11:14:11;;;;;;;5.32;1.10;;;;;;;11.08;nan;100221.03;5071850;28;20536;-78
2021/05/26 11:16:37;;;;;;;2.38;0.95;;;;;;;11.11;nan;100235.75;5067491;28;20044;-80
2021/05/26 11:19:12;;;;;;;2.10;0.90;;;;;;;11.17;nan;100225.34;5091692;28;20086;-77
2021/05/26 11:21:38;;;;;;;3.00;0.90;;;;;;;11.08;nan;100223.66;5082271;28;20120;-81
2021/05/26 11:24:04;;;;;;;1.58;0.88;;;;;;;11.10;nan;100229.63;5068510;28;20430;-76
2021/05/26 11:26:35;;;;;;;1.50;0.95;;;;;;;11.05;nan;100229.28;5068511;28;20033;-77
2021/05/26 11:29:00;;;;;;;2.20;1.10;;;;;;;10.99;nan;100228.13;5067621;28;20559;-76
2021/05/26 11:31:25;;;;;;;3.63;1.23;;;;;;;11.08;nan;100228.13;5078964;28;20040;-76
2021/05/26 11:33:58;;;;;;;3.17;1.10;;;;;;;11.08;nan;100228.13;5088904;28;20028;-77
2021/05/26 11:36:46;;;;;;;1.75;1.00;;;;;;;11.11;nan;100226.00;5084657;28;20036;-77
2021/05/26 11:39:30;;;;;;;1.90;1.00;;;;;;;11.00;nan;100224.47;5075983;28;20497;-76
2021/05/26 11:42:11;;;;;;;1.50;0.98;;;;;;;11.18;nan;100219.06;5080390;28;20111;-77
2021/05/26 11:44:41;;;;;;;3.47;1.20;;;;;;;11.14;nan;100223.03;5076693;28;20060;-76
2021/05/26 11:47:07;;;;;;;2.38;1.13;;;;;;;11.08;nan;100222.84;5085932;28;20034;-77
2021/05/26 11:49:36;;;;;;;1.50;1.00;;;;;;;11.11;nan;100217.22;5089050;28;20032;-75